sensor_id;sensor_type;location;lat;lon;timestamp;P1;durP1;ratioP1;P2;durP2;ratioP2
74168;SDS011;62523;53.336;83.690;2023-07-29T00:04:48;4.90;;;3.92;;
74168;SDS011;62523;53.336;83.690;2023-07-29T00:09:50;3.80;;;3.25;;
74168;SDS011;62523;53.336;83.690;2023-07-29T00:14:52;5.50;;;3.83;;
74168;SDS011;62523;53.336;83.690;2023-07-29T00:19:53;5.28;;;4.00;;
74168;SDS011;62523;53.336;83.690;2023-07-29T00:24:55;10.63;;;7.43;;
74168;SDS011;62523;53.336;83.690;2023-07-29T00:29:58;6.22;;;3.60;;
74168;SDS011;62523;53.336;83.690;2023-07-29T00:34:59;3.92;;;3.30;;
74168;SDS011;62523;53.336;83.690;2023-07-29T00:40:02;10.07;;;3.63;;
74168;SDS011;62523;53.336;83.690;2023-07-29T00:45:05;3.55;;;3.17;;
74168;SDS011;62523;53.336;83.690;2023-07-29T00:50:11;5.07;;;3.88;;
74168;SDS011;62523;53.336;83.690;2023-07-29T00:55:15;3.47;;;3.17;;
74168;SDS011;62523;53.336;83.690;2023-07-29T01:00:17;6.07;;;3.88;;
74168;SDS011;62523;53.336;83.690;2023-07-29T01:05:18;8.30;;;3.80;;
74168;SDS011;62523;53.336;83.690;2023-07-29T01:10:30;15.82;;;4.78;;
74168;SDS011;62523;53.336;83.690;2023-07-29T01:15:37;5.97;;;3.53;;
74168;SDS011;62523;53.336;83.690;2023-07-29T01:25:44;8.68;;;3.47;;
74168;SDS011;62523;53.336;83.690;2023-07-29T01:30:46;3.38;;;3.08;;
74168;SDS011;62523;53.336;83.690;2023-07-29T01:35:57;5.40;;;3.70;;
74168;SDS011;62523;53.336;83.690;2023-07-29T01:41:03;4.00;;;3.47;;
74168;SDS011;62523;53.336;83.690;2023-07-29T01:46:07;10.48;;;4.45;;
74168;SDS011;62523;53.336;83.690;2023-07-29T01:51:11;3.15;;;2.95;;
74168;SDS011;62523;53.336;83.690;2023-07-29T01:56:13;5.55;;;3.20;;
74168;SDS011;62523;53.336;83.690;2023-07-29T02:01:24;5.03;;;3.88;;
74168;SDS011;62523;53.336;83.690;2023-07-29T02:06:25;3.90;;;3.33;;
74168;SDS011;62523;53.336;83.690;2023-07-29T02:11:28;4.50;;;4.10;;
74168;SDS011;62523;53.336;83.690;2023-07-29T02:16:30;10.82;;;4.32;;
74168;SDS011;62523;53.336;83.690;2023-07-29T02:21:33;4.82;;;3.60;;
74168;SDS011;62523;53.336;83.690;2023-07-29T02:26:35;6.18;;;3.80;;
74168;SDS011;62523;53.336;83.690;2023-07-29T02:31:36;5.50;;;4.68;;
74168;SDS011;62523;53.336;83.690;2023-07-29T02:36:39;6.87;;;5.00;;
74168;SDS011;62523;53.336;83.690;2023-07-29T02:41:41;6.18;;;3.97;;
74168;SDS011;62523;53.336;83.690;2023-07-29T02:46:42;5.43;;;4.38;;
74168;SDS011;62523;53.336;83.690;2023-07-29T02:51:44;3.83;;;3.55;;
74168;SDS011;62523;53.336;83.690;2023-07-29T02:56:46;5.38;;;4.18;;
74168;SDS011;62523;53.336;83.690;2023-07-29T03:01:47;4.38;;;3.97;;
74168;SDS011;62523;53.336;83.690;2023-07-29T03:06:49;4.65;;;3.28;;
74168;SDS011;62523;53.336;83.690;2023-07-29T03:11:50;6.43;;;4.10;;
74168;SDS011;62523;53.336;83.690;2023-07-29T03:16:53;3.38;;;3.08;;
74168;SDS011;62523;53.336;83.690;2023-07-29T03:21:55;6.85;;;3.20;;
74168;SDS011;62523;53.336;83.690;2023-07-29T03:26:56;5.88;;;3.55;;
74168;SDS011;62523;53.336;83.690;2023-07-29T03:31:58;3.70;;;3.40;;
74168;SDS011;62523;53.336;83.690;2023-07-29T03:37:00;4.88;;;4.13;;
74168;SDS011;62523;53.336;83.690;2023-07-29T03:42:02;10.23;;;4.57;;
74168;SDS011;62523;53.336;83.690;2023-07-29T03:47:04;10.27;;;5.40;;
74168;SDS011;62523;53.336;83.690;2023-07-29T03:52:06;4.53;;;4.10;;
74168;SDS011;62523;53.336;83.690;2023-07-29T03:57:08;10.38;;;3.60;;
74168;SDS011;62523;53.336;83.690;2023-07-29T04:02:09;8.00;;;4.13;;
74168;SDS011;62523;53.336;83.690;2023-07-29T04:07:11;7.05;;;3.75;;
74168;SDS011;62523;53.336;83.690;2023-07-29T04:12:12;4.93;;;4.50;;
74168;SDS011;62523;53.336;83.690;2023-07-29T04:17:14;4.93;;;4.38;;
74168;SDS011;62523;53.336;83.690;2023-07-29T04:22:16;6.18;;;2.92;;
74168;SDS011;62523;53.336;83.690;2023-07-29T04:27:17;5.28;;;3.72;;
74168;SDS011;62523;53.336;83.690;2023-07-29T04:32:19;7.13;;;4.13;;
74168;SDS011;62523;53.336;83.690;2023-07-29T04:37:20;5.47;;;3.85;;
74168;SDS011;62523;53.336;83.690;2023-07-29T04:42:22;2.85;;;2.38;;
74168;SDS011;62523;53.336;83.690;2023-07-29T04:47:24;4.15;;;3.50;;
74168;SDS011;62523;53.336;83.690;2023-07-29T04:52:25;5.53;;;3.60;;
74168;SDS011;62523;53.336;83.690;2023-07-29T04:57:27;3.92;;;3.63;;
74168;SDS011;62523;53.336;83.690;2023-07-29T05:02:29;4.82;;;3.25;;
74168;SDS011;62523;53.336;83.690;2023-07-29T05:07:31;3.45;;;3.15;;
74168;SDS011;62523;53.336;83.690;2023-07-29T05:12:32;3.22;;;2.92;;
74168;SDS011;62523;53.336;83.690;2023-07-29T05:17:34;4.90;;;4.40;;
74168;SDS011;62523;53.336;83.690;2023-07-29T05:22:36;5.72;;;4.22;;
74168;SDS011;62523;53.336;83.690;2023-07-29T05:27:37;4.25;;;3.50;;
74168;SDS011;62523;53.336;83.690;2023-07-29T05:32:39;10.93;;;4.78;;
74168;SDS011;62523;53.336;83.690;2023-07-29T05:37:40;6.15;;;3.13;;
74168;SDS011;62523;53.336;83.690;2023-07-29T05:42:42;3.75;;;3.35;;
74168;SDS011;62523;53.336;83.690;2023-07-29T05:47:46;9.98;;;4.00;;
74168;SDS011;62523;53.336;83.690;2023-07-29T05:52:48;11.93;;;4.65;;
74168;SDS011;62523;53.336;83.690;2023-07-29T05:57:59;4.63;;;2.79;;
74168;SDS011;62523;53.336;83.690;2023-07-29T06:03:02;11.02;;;3.22;;
74168;SDS011;62523;53.336;83.690;2023-07-29T06:08:04;4.80;;;4.33;;
74168;SDS011;62523;53.336;83.690;2023-07-29T06:13:05;3.50;;;3.20;;
74168;SDS011;62523;53.336;83.690;2023-07-29T06:18:07;6.20;;;3.40;;
74168;SDS011;62523;53.336;83.690;2023-07-29T06:23:09;3.43;;;2.70;;
74168;SDS011;62523;53.336;83.690;2023-07-29T06:28:11;2.72;;;2.50;;
74168;SDS011;62523;53.336;83.690;2023-07-29T06:33:12;5.60;;;3.58;;
74168;SDS011;62523;53.336;83.690;2023-07-29T06:38:14;2.33;;;1.95;;
74168;SDS011;62523;53.336;83.690;2023-07-29T06:43:15;8.53;;;2.37;;
74168;SDS011;62523;53.336;83.690;2023-07-29T06:48:17;4.65;;;2.90;;
74168;SDS011;62523;53.336;83.690;2023-07-29T06:53:20;3.17;;;2.53;;
74168;SDS011;62523;53.336;83.690;2023-07-29T06:58:22;6.63;;;2.97;;
74168;SDS011;62523;53.336;83.690;2023-07-29T07:03:24;8.05;;;3.50;;
74168;SDS011;62523;53.336;83.690;2023-07-29T07:08:26;3.03;;;2.80;;
74168;SDS011;62523;53.336;83.690;2023-07-29T07:13:27;3.80;;;3.50;;
74168;SDS011;62523;53.336;83.690;2023-07-29T07:18:29;5.30;;;3.42;;
74168;SDS011;62523;53.336;83.690;2023-07-29T07:23:30;11.27;;;4.28;;
74168;SDS011;62523;53.336;83.690;2023-07-29T07:28:31;2.85;;;2.40;;
74168;SDS011;62523;53.336;83.690;2023-07-29T07:33:33;4.43;;;3.47;;
74168;SDS011;62523;53.336;83.690;2023-07-29T07:38:34;4.90;;;2.92;;
74168;SDS011;62523;53.336;83.690;2023-07-29T07:43:36;3.10;;;2.80;;
74168;SDS011;62523;53.336;83.690;2023-07-29T07:48:38;5.10;;;3.47;;
74168;SDS011;62523;53.336;83.690;2023-07-29T07:53:39;5.38;;;3.42;;
74168;SDS011;62523;53.336;83.690;2023-07-29T07:58:41;5.18;;;3.05;;
74168;SDS011;62523;53.336;83.690;2023-07-29T08:03:43;5.38;;;3.63;;
74168;SDS011;62523;53.336;83.690;2023-07-29T08:08:44;8.95;;;3.95;;
74168;SDS011;62523;53.336;83.690;2023-07-29T08:13:45;7.32;;;3.45;;
74168;SDS011;62523;53.336;83.690;2023-07-29T08:18:47;4.38;;;3.92;;
74168;SDS011;62523;53.336;83.690;2023-07-29T08:23:48;9.65;;;3.28;;
74168;SDS011;62523;53.336;83.690;2023-07-29T08:28:50;12.13;;;3.20;;
74168;SDS011;62523;53.336;83.690;2023-07-29T08:33:52;12.10;;;4.10;;
74168;SDS011;62523;53.336;83.690;2023-07-29T08:38:54;4.18;;;3.10;;
74168;SDS011;62523;53.336;83.690;2023-07-29T08:44:29;5.03;;;4.23;;
74168;SDS011;62523;53.336;83.690;2023-07-29T08:49:24;9.30;;;3.97;;
74168;SDS011;62523;53.336;83.690;2023-07-29T08:54:27;9.25;;;4.15;;
74168;SDS011;62523;53.336;83.690;2023-07-29T08:59:29;11.35;;;4.57;;
74168;SDS011;62523;53.336;83.690;2023-07-29T09:04:32;3.95;;;2.53;;
74168;SDS011;62523;53.336;83.690;2023-07-29T09:09:34;11.05;;;7.55;;
74168;SDS011;62523;53.336;83.690;2023-07-29T09:14:36;10.85;;;4.50;;
74168;SDS011;62523;53.336;83.690;2023-07-29T09:19:38;7.75;;;3.97;;
74168;SDS011;62523;53.336;83.690;2023-07-29T09:24:40;15.93;;;4.53;;
74168;SDS011;62523;53.336;83.690;2023-07-29T09:29:42;3.35;;;3.05;;
74168;SDS011;62523;53.336;83.690;2023-07-29T09:34:43;6.72;;;4.38;;
74168;SDS011;62523;53.336;83.690;2023-07-29T09:39:45;7.25;;;4.10;;
74168;SDS011;62523;53.336;83.690;2023-07-29T09:44:48;17.15;;;3.92;;
74168;SDS011;62523;53.336;83.690;2023-07-29T09:49:51;5.43;;;3.55;;
74168;SDS011;62523;53.336;83.690;2023-07-29T09:54:54;25.80;;;4.55;;
74168;SDS011;62523;53.336;83.690;2023-07-29T09:59:56;4.47;;;2.97;;
74168;SDS011;62523;53.336;83.690;2023-07-29T10:05:00;2.15;;;1.98;;
74168;SDS011;62523;53.336;83.690;2023-07-29T10:10:02;13.40;;;5.15;;
74168;SDS011;62523;53.336;83.690;2023-07-29T10:15:06;4.10;;;3.30;;
74168;SDS011;62523;53.336;83.690;2023-07-29T10:20:09;5.47;;;3.10;;
74168;SDS011;62523;53.336;83.690;2023-07-29T10:25:18;4.38;;;3.65;;
74168;SDS011;62523;53.336;83.690;2023-07-29T10:30:24;10.93;;;4.07;;
74168;SDS011;62523;53.336;83.690;2023-07-29T10:35:26;6.68;;;3.60;;
74168;SDS011;62523;53.336;83.690;2023-07-29T10:40:45;3.93;;;3.53;;
74168;SDS011;62523;53.336;83.690;2023-07-29T10:45:50;5.28;;;4.40;;
74168;SDS011;62523;53.336;83.690;2023-07-29T10:51:12;7.57;;;4.13;;
74168;SDS011;62523;53.336;83.690;2023-07-29T10:56:27;10.43;;;6.22;;
74168;SDS011;62523;53.336;83.690;2023-07-29T11:01:30;9.82;;;4.45;;
74168;SDS011;62523;53.336;83.690;2023-07-29T11:07:01;22.15;;;5.78;;
74168;SDS011;62523;53.336;83.690;2023-07-29T11:12:32;8.45;;;4.50;;
74168;SDS011;62523;53.336;83.690;2023-07-29T11:17:52;9.93;;;4.55;;
74168;SDS011;62523;53.336;83.690;2023-07-29T11:23:00;17.38;;;4.57;;
74168;SDS011;62523;53.336;83.690;2023-07-29T11:28:03;17.66;;;5.23;;
74168;SDS011;62523;53.336;83.690;2023-07-29T11:33:05;6.40;;;4.97;;
74168;SDS011;62523;53.336;83.690;2023-07-29T11:38:06;6.47;;;4.87;;
74168;SDS011;62523;53.336;83.690;2023-07-29T11:43:08;6.03;;;4.88;;
74168;SDS011;62523;53.336;83.690;2023-07-29T11:48:10;15.32;;;5.10;;
74168;SDS011;62523;53.336;83.690;2023-07-29T11:53:11;6.15;;;4.93;;
74168;SDS011;62523;53.336;83.690;2023-07-29T11:58:13;7.50;;;4.45;;
74168;SDS011;62523;53.336;83.690;2023-07-29T12:03:16;4.47;;;3.97;;
74168;SDS011;62523;53.336;83.690;2023-07-29T12:08:18;10.27;;;6.72;;
74168;SDS011;62523;53.336;83.690;2023-07-29T12:13:23;9.60;;;6.55;;
74168;SDS011;62523;53.336;83.690;2023-07-29T12:18:29;10.13;;;5.97;;
74168;SDS011;62523;53.336;83.690;2023-07-29T12:23:32;7.00;;;5.50;;
74168;SDS011;62523;53.336;83.690;2023-07-29T12:28:34;7.63;;;6.50;;
74168;SDS011;62523;53.336;83.690;2023-07-29T12:33:36;6.28;;;4.35;;
74168;SDS011;62523;53.336;83.690;2023-07-29T12:38:43;5.47;;;4.65;;
74168;SDS011;62523;53.336;83.690;2023-07-29T12:43:45;16.38;;;5.75;;
74168;SDS011;62523;53.336;83.690;2023-07-29T12:48:47;6.40;;;5.53;;
74168;SDS011;62523;53.336;83.690;2023-07-29T12:53:49;6.87;;;5.63;;
74168;SDS011;62523;53.336;83.690;2023-07-29T12:58:51;7.73;;;5.97;;
74168;SDS011;62523;53.336;83.690;2023-07-29T13:03:53;12.18;;;9.32;;
74168;SDS011;62523;53.336;83.690;2023-07-29T13:08:56;12.52;;;9.38;;
74168;SDS011;62523;53.336;83.690;2023-07-29T13:13:57;13.63;;;10.52;;
74168;SDS011;62523;53.336;83.690;2023-07-29T13:18:59;14.87;;;10.67;;
74168;SDS011;62523;53.336;83.690;2023-07-29T13:24:00;10.38;;;6.82;;
74168;SDS011;62523;53.336;83.690;2023-07-29T13:29:02;42.03;;;19.77;;
74168;SDS011;62523;53.336;83.690;2023-07-29T13:34:05;8.82;;;7.93;;
74168;SDS011;62523;53.336;83.690;2023-07-29T13:39:06;13.32;;;8.52;;
74168;SDS011;62523;53.336;83.690;2023-07-29T13:44:08;11.88;;;8.02;;
74168;SDS011;62523;53.336;83.690;2023-07-29T13:49:10;14.80;;;8.13;;
74168;SDS011;62523;53.336;83.690;2023-07-29T13:54:12;24.73;;;10.70;;
74168;SDS011;62523;53.336;83.690;2023-07-29T13:59:14;16.90;;;12.50;;
74168;SDS011;62523;53.336;83.690;2023-07-29T14:04:15;25.50;;;13.57;;
74168;SDS011;62523;53.336;83.690;2023-07-29T14:09:17;25.13;;;14.17;;
74168;SDS011;62523;53.336;83.690;2023-07-29T14:14:18;26.73;;;17.80;;
74168;SDS011;62523;53.336;83.690;2023-07-29T14:19:20;20.83;;;16.30;;
74168;SDS011;62523;53.336;83.690;2023-07-29T14:24:22;24.98;;;15.32;;
74168;SDS011;62523;53.336;83.690;2023-07-29T14:29:23;38.20;;;16.17;;
74168;SDS011;62523;53.336;83.690;2023-07-29T14:34:25;21.65;;;12.55;;
74168;SDS011;62523;53.336;83.690;2023-07-29T14:39:27;21.13;;;15.00;;
74168;SDS011;62523;53.336;83.690;2023-07-29T14:44:28;35.53;;;13.05;;
74168;SDS011;62523;53.336;83.690;2023-07-29T14:49:30;20.80;;;16.60;;
74168;SDS011;62523;53.336;83.690;2023-07-29T14:54:32;18.13;;;12.68;;
74168;SDS011;62523;53.336;83.690;2023-07-29T14:59:34;19.55;;;14.68;;
74168;SDS011;62523;53.336;83.690;2023-07-29T15:04:35;23.95;;;12.48;;
74168;SDS011;62523;53.336;83.690;2023-07-29T15:09:37;14.27;;;8.80;;
74168;SDS011;62523;53.336;83.690;2023-07-29T15:14:38;18.92;;;9.43;;
74168;SDS011;62523;53.336;83.690;2023-07-29T15:19:40;15.45;;;7.50;;
74168;SDS011;62523;53.336;83.690;2023-07-29T15:24:41;5.55;;;5.03;;
74168;SDS011;62523;53.336;83.690;2023-07-29T15:29:47;8.07;;;5.80;;
74168;SDS011;62523;53.336;83.690;2023-07-29T15:34:49;8.30;;;6.47;;
74168;SDS011;62523;53.336;83.690;2023-07-29T15:39:51;8.55;;;6.57;;
74168;SDS011;62523;53.336;83.690;2023-07-29T15:44:52;6.22;;;5.38;;
74168;SDS011;62523;53.336;83.690;2023-07-29T15:49:54;11.63;;;5.57;;
74168;SDS011;62523;53.336;83.690;2023-07-29T15:54:55;11.65;;;6.97;;
74168;SDS011;62523;53.336;83.690;2023-07-29T15:59:57;5.80;;;5.10;;
74168;SDS011;62523;53.336;83.690;2023-07-29T16:04:59;14.13;;;5.38;;
74168;SDS011;62523;53.336;83.690;2023-07-29T16:10:01;5.37;;;4.40;;
74168;SDS011;62523;53.336;83.690;2023-07-29T16:15:05;9.40;;;6.85;;
74168;SDS011;62523;53.336;83.690;2023-07-29T16:20:08;6.93;;;5.82;;
74168;SDS011;62523;53.336;83.690;2023-07-29T16:25:10;11.00;;;7.67;;
74168;SDS011;62523;53.336;83.690;2023-07-29T16:30:12;12.00;;;6.90;;
74168;SDS011;62523;53.336;83.690;2023-07-29T16:35:14;20.03;;;6.77;;
74168;SDS011;62523;53.336;83.690;2023-07-29T16:40:16;6.70;;;6.05;;
74168;SDS011;62523;53.336;83.690;2023-07-29T16:45:17;9.60;;;5.68;;
74168;SDS011;62523;53.336;83.690;2023-07-29T16:50:19;10.15;;;6.10;;
74168;SDS011;62523;53.336;83.690;2023-07-29T16:55:21;6.47;;;5.65;;
74168;SDS011;62523;53.336;83.690;2023-07-29T17:00:23;8.45;;;5.63;;
74168;SDS011;62523;53.336;83.690;2023-07-29T17:05:24;9.30;;;6.50;;
74168;SDS011;62523;53.336;83.690;2023-07-29T17:10:26;10.15;;;5.55;;
74168;SDS011;62523;53.336;83.690;2023-07-29T17:15:28;21.63;;;4.95;;
74168;SDS011;62523;53.336;83.690;2023-07-29T17:20:29;4.97;;;4.30;;
74168;SDS011;62523;53.336;83.690;2023-07-29T17:25:31;7.03;;;5.90;;
74168;SDS011;62523;53.336;83.690;2023-07-29T17:30:33;6.70;;;5.03;;
74168;SDS011;62523;53.336;83.690;2023-07-29T17:35:38;13.60;;;4.65;;
74168;SDS011;62523;53.336;83.690;2023-07-29T17:40:47;4.17;;;2.80;;
74168;SDS011;62523;53.336;83.690;2023-07-29T17:45:50;5.30;;;3.90;;
74168;SDS011;62523;53.336;83.690;2023-07-29T17:50:52;3.85;;;3.55;;
74168;SDS011;62523;53.336;83.690;2023-07-29T17:55:54;3.30;;;3.00;;
74168;SDS011;62523;53.336;83.690;2023-07-29T18:00:56;5.57;;;3.60;;
74168;SDS011;62523;53.336;83.690;2023-07-29T18:05:59;6.15;;;5.25;;
74168;SDS011;62523;53.336;83.690;2023-07-29T18:11:01;4.82;;;4.32;;
74168;SDS011;62523;53.336;83.690;2023-07-29T18:16:03;10.23;;;5.00;;
74168;SDS011;62523;53.336;83.690;2023-07-29T18:21:05;3.63;;;3.30;;
74168;SDS011;62523;53.336;83.690;2023-07-29T18:26:07;6.18;;;3.90;;
74168;SDS011;62523;53.336;83.690;2023-07-29T18:31:09;5.43;;;3.45;;
74168;SDS011;62523;53.336;83.690;2023-07-29T18:36:11;4.85;;;3.70;;
74168;SDS011;62523;53.336;83.690;2023-07-29T18:41:13;5.55;;;4.03;;
74168;SDS011;62523;53.336;83.690;2023-07-29T18:46:16;5.05;;;3.88;;
74168;SDS011;62523;53.336;83.690;2023-07-29T18:51:18;10.63;;;4.40;;
74168;SDS011;62523;53.336;83.690;2023-07-29T18:56:20;10.82;;;5.63;;
74168;SDS011;62523;53.336;83.690;2023-07-29T19:01:21;13.25;;;5.07;;
74168;SDS011;62523;53.336;83.690;2023-07-29T19:06:23;5.75;;;4.18;;
74168;SDS011;62523;53.336;83.690;2023-07-29T19:11:25;18.27;;;12.23;;
74168;SDS011;62523;53.336;83.690;2023-07-29T19:16:28;17.80;;;4.72;;
74168;SDS011;62523;53.336;83.690;2023-07-29T19:21:30;10.63;;;4.97;;
74168;SDS011;62523;53.336;83.690;2023-07-29T19:26:32;8.75;;;5.68;;
74168;SDS011;62523;53.336;83.690;2023-07-29T19:31:34;11.82;;;5.18;;
74168;SDS011;62523;53.336;83.690;2023-07-29T19:36:36;12.47;;;5.43;;
74168;SDS011;62523;53.336;83.690;2023-07-29T19:41:37;6.72;;;5.43;;
74168;SDS011;62523;53.336;83.690;2023-07-29T19:46:39;5.85;;;5.25;;
74168;SDS011;62523;53.336;83.690;2023-07-29T19:51:41;8.75;;;7.85;;
74168;SDS011;62523;53.336;83.690;2023-07-29T19:56:43;19.45;;;12.45;;
74168;SDS011;62523;53.336;83.690;2023-07-29T20:01:45;7.13;;;4.70;;
74168;SDS011;62523;53.336;83.690;2023-07-29T20:06:47;20.88;;;11.95;;
74168;SDS011;62523;53.336;83.690;2023-07-29T20:11:49;5.07;;;4.57;;
74168;SDS011;62523;53.336;83.690;2023-07-29T20:16:52;12.68;;;7.88;;
74168;SDS011;62523;53.336;83.690;2023-07-29T20:21:54;18.98;;;12.98;;
74168;SDS011;62523;53.336;83.690;2023-07-29T20:26:56;6.13;;;5.28;;
74168;SDS011;62523;53.336;83.690;2023-07-29T20:31:58;5.97;;;5.07;;
74168;SDS011;62523;53.336;83.690;2023-07-29T20:37:00;8.82;;;4.30;;
74168;SDS011;62523;53.336;83.690;2023-07-29T20:42:02;4.80;;;4.25;;
74168;SDS011;62523;53.336;83.690;2023-07-29T20:47:05;5.20;;;4.80;;
74168;SDS011;62523;53.336;83.690;2023-07-29T20:52:07;5.72;;;4.47;;
74168;SDS011;62523;53.336;83.690;2023-07-29T20:57:09;4.80;;;4.40;;
74168;SDS011;62523;53.336;83.690;2023-07-29T21:02:11;4.93;;;4.03;;
74168;SDS011;62523;53.336;83.690;2023-07-29T21:07:13;11.10;;;5.40;;
74168;SDS011;62523;53.336;83.690;2023-07-29T21:12:14;8.80;;;5.60;;
74168;SDS011;62523;53.336;83.690;2023-07-29T21:17:16;6.85;;;4.50;;
74168;SDS011;62523;53.336;83.690;2023-07-29T21:22:18;7.38;;;4.28;;
74168;SDS011;62523;53.336;83.690;2023-07-29T21:27:20;7.65;;;5.35;;
74168;SDS011;62523;53.336;83.690;2023-07-29T21:32:22;4.18;;;3.85;;
74168;SDS011;62523;53.336;83.690;2023-07-29T21:37:24;6.88;;;4.53;;
74168;SDS011;62523;53.336;83.690;2023-07-29T21:42:26;4.57;;;4.18;;
74168;SDS011;62523;53.336;83.690;2023-07-29T21:47:29;5.75;;;4.32;;
74168;SDS011;62523;53.336;83.690;2023-07-29T21:52:30;7.43;;;4.07;;
74168;SDS011;62523;53.336;83.690;2023-07-29T21:57:32;6.00;;;4.68;;
74168;SDS011;62523;53.336;83.690;2023-07-29T22:02:34;6.68;;;4.38;;
74168;SDS011;62523;53.336;83.690;2023-07-29T22:07:36;4.75;;;3.70;;
74168;SDS011;62523;53.336;83.690;2023-07-29T22:12:38;6.93;;;4.32;;
74168;SDS011;62523;53.336;83.690;2023-07-29T22:17:42;9.85;;;3.53;;
74168;SDS011;62523;53.336;83.690;2023-07-29T22:22:44;4.97;;;4.28;;
74168;SDS011;62523;53.336;83.690;2023-07-29T22:27:46;6.28;;;4.40;;
74168;SDS011;62523;53.336;83.690;2023-07-29T22:32:47;4.03;;;3.72;;
74168;SDS011;62523;53.336;83.690;2023-07-29T22:37:58;5.07;;;4.60;;
74168;SDS011;62523;53.336;83.690;2023-07-29T22:43:00;18.05;;;3.47;;
74168;SDS011;62523;53.336;83.690;2023-07-29T22:48:01;3.78;;;3.48;;
74168;SDS011;62523;53.336;83.690;2023-07-29T22:53:03;4.95;;;4.45;;
74168;SDS011;62523;53.336;83.690;2023-07-29T22:58:05;5.20;;;3.67;;
74168;SDS011;62523;53.336;83.690;2023-07-29T23:03:07;9.17;;;4.23;;
74168;SDS011;62523;53.336;83.690;2023-07-29T23:08:08;4.15;;;3.78;;
74168;SDS011;62523;53.336;83.690;2023-07-29T23:13:10;6.70;;;3.57;;
74168;SDS011;62523;53.336;83.690;2023-07-29T23:18:12;3.93;;;3.57;;
74168;SDS011;62523;53.336;83.690;2023-07-29T23:23:14;2.80;;;2.60;;
74168;SDS011;62523;53.336;83.690;2023-07-29T23:28:16;4.50;;;3.95;;
74168;SDS011;62523;53.336;83.690;2023-07-29T23:33:18;7.90;;;4.53;;
74168;SDS011;62523;53.336;83.690;2023-07-29T23:38:20;6.38;;;4.70;;
74168;SDS011;62523;53.336;83.690;2023-07-29T23:43:22;7.68;;;3.72;;
74168;SDS011;62523;53.336;83.690;2023-07-29T23:48:24;3.53;;;3.23;;
74168;SDS011;62523;53.336;83.690;2023-07-29T23:53:26;8.20;;;4.50;;
74168;SDS011;62523;53.336;83.690;2023-07-29T23:58:28;6.30;;;4.10;;
